sensor_id;sensor_type;location;lat;lon;timestamp;temperature;humidity
23143;DHT22;11740;51.168;4.112;2022-10-16T00:01:19;13.50;1.00
23143;DHT22;11740;51.168;4.112;2022-10-16T00:03:47;13.50;1.00
23143;DHT22;11740;51.168;4.112;2022-10-16T00:06:14;13.50;1.00
23143;DHT22;11740;51.168;4.112;2022-10-16T00:08:43;13.40;1.00
23143;DHT22;11740;51.168;4.112;2022-10-16T00:13:43;13.50;1.00
23143;DHT22;11740;51.168;4.112;2022-10-16T00:16:11;13.40;1.00
23143;DHT22;11740;51.168;4.112;2022-10-16T00:18:39;13.40;1.00
23143;DHT22;11740;51.168;4.112;2022-10-16T00:21:08;13.40;1.00
23143;DHT22;11740;51.168;4.112;2022-10-16T00:23:45;13.40;1.00
23143;DHT22;11740;51.168;4.112;2022-10-16T00:26:16;13.40;1.00
23143;DHT22;11740;51.168;4.112;2022-10-16T00:28:45;13.40;1.00
23143;DHT22;11740;51.168;4.112;2022-10-16T00:31:13;13.30;1.00
23143;DHT22;11740;51.168;4.112;2022-10-16T00:33:40;13.30;1.00
23143;DHT22;11740;51.168;4.112;2022-10-16T00:36:08;13.30;27.70
23143;DHT22;11740;51.168;4.112;2022-10-16T00:38:36;13.30;1.00
23143;DHT22;11740;51.168;4.112;2022-10-16T00:41:09;13.20;4.00
23143;DHT22;11740;51.168;4.112;2022-10-16T00:46:55;13.20;1.00
23143;DHT22;11740;51.168;4.112;2022-10-16T00:49:22;13.20;37.30
23143;DHT22;11740;51.168;4.112;2022-10-16T00:51:49;13.20;22.90
23143;DHT22;11740;51.168;4.112;2022-10-16T00:54:21;13.20;99.90
23143;DHT22;11740;51.168;4.112;2022-10-16T00:56:50;13.10;99.90
23143;DHT22;11740;51.168;4.112;2022-10-16T01:01:52;13.10;14.30
23143;DHT22;11740;51.168;4.112;2022-10-16T01:04:21;13.10;18.10
23143;DHT22;11740;51.168;4.112;2022-10-16T01:07:02;13.10;99.90
23143;DHT22;11740;51.168;4.112;2022-10-16T01:13:00;13.00;99.90
23143;DHT22;11740;51.168;4.112;2022-10-16T01:18:21;13.00;99.90
23143;DHT22;11740;51.168;4.112;2022-10-16T01:23:53;13.00;99.90
23143;DHT22;11740;51.168;4.112;2022-10-16T01:26:31;13.00;99.90
23143;DHT22;11740;51.168;4.112;2022-10-16T01:31:51;12.90;1.00
23143;DHT22;11740;51.168;4.112;2022-10-16T01:34:25;12.90;99.90
23143;DHT22;11740;51.168;4.112;2022-10-16T01:36:59;12.90;99.90
23143;DHT22;11740;51.168;4.112;2022-10-16T01:39:32;12.90;1.00
23143;DHT22;11740;51.168;4.112;2022-10-16T01:42:05;12.90;1.00
23143;DHT22;11740;51.168;4.112;2022-10-16T01:44:34;12.80;1.00
23143;DHT22;11740;51.168;4.112;2022-10-16T01:47:03;12.80;1.00
23143;DHT22;11740;51.168;4.112;2022-10-16T01:49:32;12.80;1.00
23143;DHT22;11740;51.168;4.112;2022-10-16T01:52:02;12.80;1.00
23143;DHT22;11740;51.168;4.112;2022-10-16T01:54:32;12.80;1.00
23143;DHT22;11740;51.168;4.112;2022-10-16T01:57:01;12.70;1.00
23143;DHT22;11740;51.168;4.112;2022-10-16T01:59:32;12.80;1.00
23143;DHT22;11740;51.168;4.112;2022-10-16T02:02:04;12.80;1.00
23143;DHT22;11740;51.168;4.112;2022-10-16T02:04:34;12.70;1.00
23143;DHT22;11740;51.168;4.112;2022-10-16T02:07:04;12.80;1.00
23143;DHT22;11740;51.168;4.112;2022-10-16T02:09:32;12.70;1.00
23143;DHT22;11740;51.168;4.112;2022-10-16T02:12:00;12.70;1.00
23143;DHT22;11740;51.168;4.112;2022-10-16T02:14:32;12.70;1.00
23143;DHT22;11740;51.168;4.112;2022-10-16T02:16:59;12.70;29.80
23143;DHT22;11740;51.168;4.112;2022-10-16T02:19:25;12.70;3.30
23143;DHT22;11740;51.168;4.112;2022-10-16T02:22:00;12.70;99.90
23143;DHT22;11740;51.168;4.112;2022-10-16T02:24:33;12.70;99.90
23143;DHT22;11740;51.168;4.112;2022-10-16T02:27:23;12.70;99.90
23143;DHT22;11740;51.168;4.112;2022-10-16T02:30:11;12.70;84.40
23143;DHT22;11740;51.168;4.112;2022-10-16T02:32:42;12.70;55.80
23143;DHT22;11740;51.168;4.112;2022-10-16T02:35:10;12.70;99.90
23143;DHT22;11740;51.168;4.112;2022-10-16T02:37:37;12.60;99.90
23143;DHT22;11740;51.168;4.112;2022-10-16T02:40:05;12.70;99.90
23143;DHT22;11740;51.168;4.112;2022-10-16T02:42:33;12.60;99.90
23143;DHT22;11740;51.168;4.112;2022-10-16T02:45:01;12.70;99.90
23143;DHT22;11740;51.168;4.112;2022-10-16T02:47:28;12.60;99.90
23143;DHT22;11740;51.168;4.112;2022-10-16T02:49:55;12.60;99.90
23143;DHT22;11740;51.168;4.112;2022-10-16T02:52:22;12.60;99.90
23143;DHT22;11740;51.168;4.112;2022-10-16T02:54:49;12.60;99.90
23143;DHT22;11740;51.168;4.112;2022-10-16T02:57:16;12.60;99.90
23143;DHT22;11740;51.168;4.112;2022-10-16T02:59:43;12.70;99.90
23143;DHT22;11740;51.168;4.112;2022-10-16T03:02:10;12.60;99.90
23143;DHT22;11740;51.168;4.112;2022-10-16T03:04:37;12.60;99.90
23143;DHT22;11740;51.168;4.112;2022-10-16T03:07:07;12.60;99.90
23143;DHT22;11740;51.168;4.112;2022-10-16T03:09:34;12.60;99.90
23143;DHT22;11740;51.168;4.112;2022-10-16T03:12:01;12.60;1.00
23143;DHT22;11740;51.168;4.112;2022-10-16T03:14:28;12.60;1.00
23143;DHT22;11740;51.168;4.112;2022-10-16T03:16:55;12.60;1.00
23143;DHT22;11740;51.168;4.112;2022-10-16T03:19:22;12.60;1.00
23143;DHT22;11740;51.168;4.112;2022-10-16T03:21:49;12.60;1.00
23143;DHT22;11740;51.168;4.112;2022-10-16T03:24:15;12.50;99.90
23143;DHT22;11740;51.168;4.112;2022-10-16T03:26:45;12.50;1.00
23143;DHT22;11740;51.168;4.112;2022-10-16T03:29:12;12.50;1.00
23143;DHT22;11740;51.168;4.112;2022-10-16T03:31:38;12.50;1.00
23143;DHT22;11740;51.168;4.112;2022-10-16T03:34:05;12.50;1.00
23143;DHT22;11740;51.168;4.112;2022-10-16T03:36:32;12.50;99.90
23143;DHT22;11740;51.168;4.112;2022-10-16T03:38:59;12.50;1.00
23143;DHT22;11740;51.168;4.112;2022-10-16T03:41:26;12.50;1.00
23143;DHT22;11740;51.168;4.112;2022-10-16T03:43:52;12.50;1.00
23143;DHT22;11740;51.168;4.112;2022-10-16T03:46:19;12.40;1.00
23143;DHT22;11740;51.168;4.112;2022-10-16T03:48:46;12.40;1.00
23143;DHT22;11740;51.168;4.112;2022-10-16T03:51:13;12.40;1.00
23143;DHT22;11740;51.168;4.112;2022-10-16T03:53:39;12.40;1.00
23143;DHT22;11740;51.168;4.112;2022-10-16T03:56:08;12.40;1.00
23143;DHT22;11740;51.168;4.112;2022-10-16T03:58:35;12.40;1.00
23143;DHT22;11740;51.168;4.112;2022-10-16T04:01:02;12.40;1.00
23143;DHT22;11740;51.168;4.112;2022-10-16T04:03:29;12.40;1.00
23143;DHT22;11740;51.168;4.112;2022-10-16T04:05:55;12.40;1.00
23143;DHT22;11740;51.168;4.112;2022-10-16T04:08:23;12.30;1.00
23143;DHT22;11740;51.168;4.112;2022-10-16T04:10:49;12.30;1.00
23143;DHT22;11740;51.168;4.112;2022-10-16T04:13:16;12.30;1.00
23143;DHT22;11740;51.168;4.112;2022-10-16T04:15:48;12.30;1.00
23143;DHT22;11740;51.168;4.112;2022-10-16T04:18:15;12.30;1.00
23143;DHT22;11740;51.168;4.112;2022-10-16T04:20:42;12.30;1.00
23143;DHT22;11740;51.168;4.112;2022-10-16T04:23:08;12.30;1.00
23143;DHT22;11740;51.168;4.112;2022-10-16T04:25:35;12.30;1.00
23143;DHT22;11740;51.168;4.112;2022-10-16T04:28:02;12.30;1.00
23143;DHT22;11740;51.168;4.112;2022-10-16T04:30:29;12.30;1.00
23143;DHT22;11740;51.168;4.112;2022-10-16T04:32:55;12.20;1.00
23143;DHT22;11740;51.168;4.112;2022-10-16T04:35:22;12.30;1.00
23143;DHT22;11740;51.168;4.112;2022-10-16T04:37:49;12.20;1.00
23143;DHT22;11740;51.168;4.112;2022-10-16T04:40:16;12.20;1.00
23143;DHT22;11740;51.168;4.112;2022-10-16T04:42:43;12.20;1.00
23143;DHT22;11740;51.168;4.112;2022-10-16T04:45:10;12.20;1.00
23143;DHT22;11740;51.168;4.112;2022-10-16T04:47:42;12.20;1.00
23143;DHT22;11740;51.168;4.112;2022-10-16T04:50:15;12.10;1.00
23143;DHT22;11740;51.168;4.112;2022-10-16T04:52:42;12.10;1.00
23143;DHT22;11740;51.168;4.112;2022-10-16T04:55:08;12.10;1.00
23143;DHT22;11740;51.168;4.112;2022-10-16T04:57:35;12.10;1.00
23143;DHT22;11740;51.168;4.112;2022-10-16T05:00:02;12.10;1.00
23143;DHT22;11740;51.168;4.112;2022-10-16T05:02:30;12.10;1.00
23143;DHT22;11740;51.168;4.112;2022-10-16T05:04:56;12.10;1.00
23143;DHT22;11740;51.168;4.112;2022-10-16T05:07:23;12.10;13.40
23143;DHT22;11740;51.168;4.112;2022-10-16T05:09:50;12.10;21.70
23143;DHT22;11740;51.168;4.112;2022-10-16T05:12:17;12.10;25.50
23143;DHT22;11740;51.168;4.112;2022-10-16T05:14:46;12.10;79.60
23143;DHT22;11740;51.168;4.112;2022-10-16T05:17:12;12.10;16.20
23143;DHT22;11740;51.168;4.112;2022-10-16T05:19:39;12.10;99.90
23143;DHT22;11740;51.168;4.112;2022-10-16T05:22:06;12.10;99.90
23143;DHT22;11740;51.168;4.112;2022-10-16T05:24:33;12.10;99.90
23143;DHT22;11740;51.168;4.112;2022-10-16T05:26:59;12.00;99.90
23143;DHT22;11740;51.168;4.112;2022-10-16T05:29:26;12.00;99.90
23143;DHT22;11740;51.168;4.112;2022-10-16T05:31:53;12.00;99.90
23143;DHT22;11740;51.168;4.112;2022-10-16T05:34:20;12.00;99.90
23143;DHT22;11740;51.168;4.112;2022-10-16T05:36:47;12.00;99.90
23143;DHT22;11740;51.168;4.112;2022-10-16T05:39:14;12.00;99.90
23143;DHT22;11740;51.168;4.112;2022-10-16T05:41:41;11.90;99.90
23143;DHT22;11740;51.168;4.112;2022-10-16T05:44:09;11.90;99.90
23143;DHT22;11740;51.168;4.112;2022-10-16T05:46:35;12.00;99.90
23143;DHT22;11740;51.168;4.112;2022-10-16T05:49:02;12.00;99.90
23143;DHT22;11740;51.168;4.112;2022-10-16T05:51:29;11.90;99.90
23143;DHT22;11740;51.168;4.112;2022-10-16T05:53:56;11.90;99.90
23143;DHT22;11740;51.168;4.112;2022-10-16T05:56:23;11.90;99.90
23143;DHT22;11740;51.168;4.112;2022-10-16T05:58:50;12.00;99.90
23143;DHT22;11740;51.168;4.112;2022-10-16T06:01:17;12.00;99.90
23143;DHT22;11740;51.168;4.112;2022-10-16T06:03:45;12.00;99.90
23143;DHT22;11740;51.168;4.112;2022-10-16T06:06:13;12.00;99.90
23143;DHT22;11740;51.168;4.112;2022-10-16T06:08:41;12.00;99.90
23143;DHT22;11740;51.168;4.112;2022-10-16T06:11:11;12.00;99.90
23143;DHT22;11740;51.168;4.112;2022-10-16T06:13:41;12.00;99.90
23143;DHT22;11740;51.168;4.112;2022-10-16T06:16:09;12.00;99.90
23143;DHT22;11740;51.168;4.112;2022-10-16T06:18:37;12.00;99.90
23143;DHT22;11740;51.168;4.112;2022-10-16T06:21:14;11.90;99.90
23143;DHT22;11740;51.168;4.112;2022-10-16T06:23:43;12.00;99.90
23143;DHT22;11740;51.168;4.112;2022-10-16T06:26:16;11.90;99.90
23143;DHT22;11740;51.168;4.112;2022-10-16T06:28:44;11.90;99.90
23143;DHT22;11740;51.168;4.112;2022-10-16T06:31:11;11.80;99.90
23143;DHT22;11740;51.168;4.112;2022-10-16T06:33:39;11.80;99.90
23143;DHT22;11740;51.168;4.112;2022-10-16T06:38:35;11.90;99.90
23143;DHT22;11740;51.168;4.112;2022-10-16T06:41:02;11.80;99.90
23143;DHT22;11740;51.168;4.112;2022-10-16T06:43:30;11.80;99.90
23143;DHT22;11740;51.168;4.112;2022-10-16T06:45:59;11.80;99.90
23143;DHT22;11740;51.168;4.112;2022-10-16T06:48:26;11.80;99.90
23143;DHT22;11740;51.168;4.112;2022-10-16T06:51:01;11.80;99.90
23143;DHT22;11740;51.168;4.112;2022-10-16T06:53:39;11.80;99.90
23143;DHT22;11740;51.168;4.112;2022-10-16T06:56:27;11.80;99.90
23143;DHT22;11740;51.168;4.112;2022-10-16T06:58:56;11.90;99.90
23143;DHT22;11740;51.168;4.112;2022-10-16T07:01:23;11.90;99.90
23143;DHT22;11740;51.168;4.112;2022-10-16T07:03:50;11.90;99.90
23143;DHT22;11740;51.168;4.112;2022-10-16T07:06:18;12.00;99.90
23143;DHT22;11740;51.168;4.112;2022-10-16T07:08:46;11.90;99.90
23143;DHT22;11740;51.168;4.112;2022-10-16T07:11:14;12.00;99.90
23143;DHT22;11740;51.168;4.112;2022-10-16T07:13:42;12.00;1.00
23143;DHT22;11740;51.168;4.112;2022-10-16T07:16:12;12.00;1.00
23143;DHT22;11740;51.168;4.112;2022-10-16T07:18:41;12.00;1.00
23143;DHT22;11740;51.168;4.112;2022-10-16T07:21:10;12.10;1.00
23143;DHT22;11740;51.168;4.112;2022-10-16T07:23:38;12.10;99.90
23143;DHT22;11740;51.168;4.112;2022-10-16T07:26:05;12.10;1.00
23143;DHT22;11740;51.168;4.112;2022-10-16T07:28:33;12.10;1.00
23143;DHT22;11740;51.168;4.112;2022-10-16T07:31:05;12.20;1.00
23143;DHT22;11740;51.168;4.112;2022-10-16T07:33:33;12.20;1.00
23143;DHT22;11740;51.168;4.112;2022-10-16T07:36:01;12.30;1.00
23143;DHT22;11740;51.168;4.112;2022-10-16T07:38:28;12.40;1.00
23143;DHT22;11740;51.168;4.112;2022-10-16T07:40:55;12.40;99.90
23143;DHT22;11740;51.168;4.112;2022-10-16T07:43:24;12.30;99.90
23143;DHT22;11740;51.168;4.112;2022-10-16T07:45:51;12.40;99.90
23143;DHT22;11740;51.168;4.112;2022-10-16T07:48:23;12.40;99.90
23143;DHT22;11740;51.168;4.112;2022-10-16T07:50:56;12.50;99.90
23143;DHT22;11740;51.168;4.112;2022-10-16T07:53:23;12.50;99.90
23143;DHT22;11740;51.168;4.112;2022-10-16T07:55:52;12.50;99.90
23143;DHT22;11740;51.168;4.112;2022-10-16T07:58:23;12.60;99.90
23143;DHT22;11740;51.168;4.112;2022-10-16T08:00:49;12.60;99.90
23143;DHT22;11740;51.168;4.112;2022-10-16T08:03:16;12.70;99.90
23143;DHT22;11740;51.168;4.112;2022-10-16T08:05:43;12.80;99.90
23143;DHT22;11740;51.168;4.112;2022-10-16T08:08:13;12.80;99.90
23143;DHT22;11740;51.168;4.112;2022-10-16T08:10:41;12.90;99.90
23143;DHT22;11740;51.168;4.112;2022-10-16T08:13:07;13.00;99.90
23143;DHT22;11740;51.168;4.112;2022-10-16T08:15:34;13.00;99.90
23143;DHT22;11740;51.168;4.112;2022-10-16T08:18:02;13.00;99.90
23143;DHT22;11740;51.168;4.112;2022-10-16T08:20:32;13.00;99.90
23143;DHT22;11740;51.168;4.112;2022-10-16T08:23:00;13.00;99.90
23143;DHT22;11740;51.168;4.112;2022-10-16T08:25:27;13.10;99.90
23143;DHT22;11740;51.168;4.112;2022-10-16T08:27:56;13.10;99.90
23143;DHT22;11740;51.168;4.112;2022-10-16T08:30:23;13.20;96.60
23143;DHT22;11740;51.168;4.112;2022-10-16T08:32:52;13.30;1.00
23143;DHT22;11740;51.168;4.112;2022-10-16T08:35:19;13.30;1.00
23143;DHT22;11740;51.168;4.112;2022-10-16T08:37:45;13.30;1.00
23143;DHT22;11740;51.168;4.112;2022-10-16T08:40:16;13.40;1.00
23143;DHT22;11740;51.168;4.112;2022-10-16T08:50:50;13.50;1.00
23143;DHT22;11740;51.168;4.112;2022-10-16T08:53:20;13.60;1.00
23143;DHT22;11740;51.168;4.112;2022-10-16T08:55:51;13.60;1.00
23143;DHT22;11740;51.168;4.112;2022-10-16T08:58:19;13.70;1.00
23143;DHT22;11740;51.168;4.112;2022-10-16T09:01:01;13.80;1.00
23143;DHT22;11740;51.168;4.112;2022-10-16T09:06:42;13.80;1.00
23143;DHT22;11740;51.168;4.112;2022-10-16T09:09:34;13.90;99.90
23143;DHT22;11740;51.168;4.112;2022-10-16T09:12:19;14.00;99.90
23143;DHT22;11740;51.168;4.112;2022-10-16T09:14:58;14.00;99.90
23143;DHT22;11740;51.168;4.112;2022-10-16T09:17:36;14.00;99.90
23143;DHT22;11740;51.168;4.112;2022-10-16T09:22:47;14.20;99.90
23143;DHT22;11740;51.168;4.112;2022-10-16T09:25:18;14.20;94.80
23143;DHT22;11740;51.168;4.112;2022-10-16T09:27:48;14.30;62.60
23143;DHT22;11740;51.168;4.112;2022-10-16T09:30:19;14.30;99.90
23143;DHT22;11740;51.168;4.112;2022-10-16T09:32:49;14.30;99.90
23143;DHT22;11740;51.168;4.112;2022-10-16T09:35:22;14.40;40.80
23143;DHT22;11740;51.168;4.112;2022-10-16T09:37:51;14.40;1.00
23143;DHT22;11740;51.168;4.112;2022-10-16T09:40:24;14.40;99.90
23143;DHT22;11740;51.168;4.112;2022-10-16T09:42:56;14.70;2.90
23143;DHT22;11740;51.168;4.112;2022-10-16T09:45:34;14.70;1.00
23143;DHT22;11740;51.168;4.112;2022-10-16T09:48:01;14.70;1.00
23143;DHT22;11740;51.168;4.112;2022-10-16T09:50:37;14.80;1.00
23143;DHT22;11740;51.168;4.112;2022-10-16T09:53:05;14.90;99.90
23143;DHT22;11740;51.168;4.112;2022-10-16T09:55:47;15.00;99.90
23143;DHT22;11740;51.168;4.112;2022-10-16T09:58:15;15.00;99.90
23143;DHT22;11740;51.168;4.112;2022-10-16T10:00:42;15.00;1.00
23143;DHT22;11740;51.168;4.112;2022-10-16T10:06:33;15.00;99.90
23143;DHT22;11740;51.168;4.112;2022-10-16T10:09:21;14.90;99.90
23143;DHT22;11740;51.168;4.112;2022-10-16T10:14:32;14.90;1.00
23143;DHT22;11740;51.168;4.112;2022-10-16T10:22:25;15.20;99.90
23143;DHT22;11740;51.168;4.112;2022-10-16T10:30:43;15.30;99.90
23143;DHT22;11740;51.168;4.112;2022-10-16T10:33:20;15.30;99.90
23143;DHT22;11740;51.168;4.112;2022-10-16T10:38:20;15.40;1.00
23143;DHT22;11740;51.168;4.112;2022-10-16T10:43:34;15.70;1.00
23143;DHT22;11740;51.168;4.112;2022-10-16T10:46:09;15.70;1.00
23143;DHT22;11740;51.168;4.112;2022-10-16T10:48:47;15.90;1.00
23143;DHT22;11740;51.168;4.112;2022-10-16T10:51:40;15.90;1.00
23143;DHT22;11740;51.168;4.112;2022-10-16T10:57:22;16.00;99.90
23143;DHT22;11740;51.168;4.112;2022-10-16T11:05:44;16.20;99.90
23143;DHT22;11740;51.168;4.112;2022-10-16T11:08:19;16.10;99.90
23143;DHT22;11740;51.168;4.112;2022-10-16T11:10:50;16.00;1.00
23143;DHT22;11740;51.168;4.112;2022-10-16T11:13:28;16.00;99.90
23143;DHT22;11740;51.168;4.112;2022-10-16T11:16:00;16.10;1.00
23143;DHT22;11740;51.168;4.112;2022-10-16T11:18:42;16.30;1.00
23143;DHT22;11740;51.168;4.112;2022-10-16T11:21:19;16.40;1.00
23143;DHT22;11740;51.168;4.112;2022-10-16T11:26:25;16.60;1.00
23143;DHT22;11740;51.168;4.112;2022-10-16T11:28:54;16.70;99.90
23143;DHT22;11740;51.168;4.112;2022-10-16T11:31:32;16.60;99.90
23143;DHT22;11740;51.168;4.112;2022-10-16T11:34:05;16.60;86.60
23143;DHT22;11740;51.168;4.112;2022-10-16T11:37:01;16.60;99.90
23143;DHT22;11740;51.168;4.112;2022-10-16T11:39:28;16.70;99.90
23143;DHT22;11740;51.168;4.112;2022-10-16T11:42:01;16.70;99.90
23143;DHT22;11740;51.168;4.112;2022-10-16T11:53:01;16.80;1.00
23143;DHT22;11740;51.168;4.112;2022-10-16T11:55:41;17.00;99.90
23143;DHT22;11740;51.168;4.112;2022-10-16T11:58:15;17.00;99.90
23143;DHT22;11740;51.168;4.112;2022-10-16T12:01:01;17.10;3.50
23143;DHT22;11740;51.168;4.112;2022-10-16T12:03:45;17.20;1.00
23143;DHT22;11740;51.168;4.112;2022-10-16T12:09:02;17.60;99.90
23143;DHT22;11740;51.168;4.112;2022-10-16T12:11:35;17.70;1.00
23143;DHT22;11740;51.168;4.112;2022-10-16T12:16:51;17.80;99.90
23143;DHT22;11740;51.168;4.112;2022-10-16T12:19:19;17.90;1.00
23143;DHT22;11740;51.168;4.112;2022-10-16T12:21:47;18.00;1.00
23143;DHT22;11740;51.168;4.112;2022-10-16T12:27:04;18.20;99.90
23143;DHT22;11740;51.168;4.112;2022-10-16T12:29:37;18.30;1.00
23143;DHT22;11740;51.168;4.112;2022-10-16T12:32:06;18.40;1.00
23143;DHT22;11740;51.168;4.112;2022-10-16T12:35:18;18.50;1.00
23143;DHT22;11740;51.168;4.112;2022-10-16T12:37:47;18.60;99.90
23143;DHT22;11740;51.168;4.112;2022-10-16T12:42:52;18.60;99.90
23143;DHT22;11740;51.168;4.112;2022-10-16T12:45:26;18.60;1.00
23143;DHT22;11740;51.168;4.112;2022-10-16T12:47:59;18.60;99.90
23143;DHT22;11740;51.168;4.112;2022-10-16T12:52:57;18.80;1.00
23143;DHT22;11740;51.168;4.112;2022-10-16T12:55:25;19.00;1.00
23143;DHT22;11740;51.168;4.112;2022-10-16T12:58:00;19.10;99.90
23143;DHT22;11740;51.168;4.112;2022-10-16T13:17:08;19.40;1.00
23143;DHT22;11740;51.168;4.112;2022-10-16T13:27:52;19.60;1.00
23143;DHT22;11740;51.168;4.112;2022-10-16T13:30:23;19.60;1.00
23143;DHT22;11740;51.168;4.112;2022-10-16T13:33:04;19.60;1.00
23143;DHT22;11740;51.168;4.112;2022-10-16T13:35:35;19.70;1.00
23143;DHT22;11740;51.168;4.112;2022-10-16T13:38:10;19.70;1.00
23143;DHT22;11740;51.168;4.112;2022-10-16T13:40:47;19.70;16.20
23143;DHT22;11740;51.168;4.112;2022-10-16T13:43:45;19.70;99.90
23143;DHT22;11740;51.168;4.112;2022-10-16T13:46:13;19.70;99.90
23143;DHT22;11740;51.168;4.112;2022-10-16T13:48:59;19.80;1.00
23143;DHT22;11740;51.168;4.112;2022-10-16T13:51:27;19.80;99.90
23143;DHT22;11740;51.168;4.112;2022-10-16T13:53:56;19.90;1.00
23143;DHT22;11740;51.168;4.112;2022-10-16T13:56:27;20.00;99.90
23143;DHT22;11740;51.168;4.112;2022-10-16T14:01:33;20.10;99.90
23143;DHT22;11740;51.168;4.112;2022-10-16T14:04:09;20.10;99.90
23143;DHT22;11740;51.168;4.112;2022-10-16T14:06:42;20.30;1.00
23143;DHT22;11740;51.168;4.112;2022-10-16T14:11:49;20.20;99.90
23143;DHT22;11740;51.168;4.112;2022-10-16T14:14:18;20.10;99.90
23143;DHT22;11740;51.168;4.112;2022-10-16T14:16:46;20.20;1.00
23143;DHT22;11740;51.168;4.112;2022-10-16T14:19:23;20.20;99.90
23143;DHT22;11740;51.168;4.112;2022-10-16T14:21:52;20.30;1.00
23143;DHT22;11740;51.168;4.112;2022-10-16T14:24:24;20.40;1.00
23143;DHT22;11740;51.168;4.112;2022-10-16T14:27:01;20.50;59.90
23143;DHT22;11740;51.168;4.112;2022-10-16T14:29:29;20.50;1.00
23143;DHT22;11740;51.168;4.112;2022-10-16T14:32:00;20.60;1.00
23143;DHT22;11740;51.168;4.112;2022-10-16T14:34:32;20.60;99.90
23143;DHT22;11740;51.168;4.112;2022-10-16T14:37:01;20.40;99.90
23143;DHT22;11740;51.168;4.112;2022-10-16T14:39:38;20.30;1.00
23143;DHT22;11740;51.168;4.112;2022-10-16T14:42:11;20.20;1.00
23143;DHT22;11740;51.168;4.112;2022-10-16T14:44:40;20.30;99.90
23143;DHT22;11740;51.168;4.112;2022-10-16T14:47:08;20.40;1.00
23143;DHT22;11740;51.168;4.112;2022-10-16T14:49:40;20.40;1.00
23143;DHT22;11740;51.168;4.112;2022-10-16T14:52:11;20.50;99.90
23143;DHT22;11740;51.168;4.112;2022-10-16T14:54:39;20.40;99.90
23143;DHT22;11740;51.168;4.112;2022-10-16T14:57:13;20.40;99.90
23143;DHT22;11740;51.168;4.112;2022-10-16T14:59:43;20.30;1.00
23143;DHT22;11740;51.168;4.112;2022-10-16T15:02:18;20.30;99.90
23143;DHT22;11740;51.168;4.112;2022-10-16T15:04:49;20.30;1.00
23143;DHT22;11740;51.168;4.112;2022-10-16T15:07:16;20.30;99.90
23143;DHT22;11740;51.168;4.112;2022-10-16T15:09:43;20.30;99.90
23143;DHT22;11740;51.168;4.112;2022-10-16T15:12:15;20.30;1.00
23143;DHT22;11740;51.168;4.112;2022-10-16T15:14:42;20.30;1.00
23143;DHT22;11740;51.168;4.112;2022-10-16T15:17:10;20.20;1.00
23143;DHT22;11740;51.168;4.112;2022-10-16T15:19:37;20.20;59.80
23143;DHT22;11740;51.168;4.112;2022-10-16T15:22:04;20.20;1.00
23143;DHT22;11740;51.168;4.112;2022-10-16T15:24:31;20.30;99.90
23143;DHT22;11740;51.168;4.112;2022-10-16T15:26:58;20.30;99.90
23143;DHT22;11740;51.168;4.112;2022-10-16T15:29:24;20.30;1.00
23143;DHT22;11740;51.168;4.112;2022-10-16T15:31:51;20.30;1.00
23143;DHT22;11740;51.168;4.112;2022-10-16T15:34:18;20.30;99.90
23143;DHT22;11740;51.168;4.112;2022-10-16T15:36:46;20.30;99.90
23143;DHT22;11740;51.168;4.112;2022-10-16T15:39:14;20.40;99.90
23143;DHT22;11740;51.168;4.112;2022-10-16T15:41:43;20.40;99.90
23143;DHT22;11740;51.168;4.112;2022-10-16T15:44:10;20.40;1.00
23143;DHT22;11740;51.168;4.112;2022-10-16T15:46:37;20.50;1.00
23143;DHT22;11740;51.168;4.112;2022-10-16T15:49:05;20.40;1.00
23143;DHT22;11740;51.168;4.112;2022-10-16T15:51:33;20.40;99.90
23143;DHT22;11740;51.168;4.112;2022-10-16T15:54:00;20.30;1.00
23143;DHT22;11740;51.168;4.112;2022-10-16T15:56:28;20.20;1.00
23143;DHT22;11740;51.168;4.112;2022-10-16T15:58:55;20.30;99.90
23143;DHT22;11740;51.168;4.112;2022-10-16T16:01:23;20.30;99.90
23143;DHT22;11740;51.168;4.112;2022-10-16T16:03:53;20.30;99.90
23143;DHT22;11740;51.168;4.112;2022-10-16T16:06:21;20.20;99.90
23143;DHT22;11740;51.168;4.112;2022-10-16T16:08:50;20.10;99.90
23143;DHT22;11740;51.168;4.112;2022-10-16T16:11:17;20.10;1.00
23143;DHT22;11740;51.168;4.112;2022-10-16T16:13:45;20.10;1.00
23143;DHT22;11740;51.168;4.112;2022-10-16T16:16:13;20.00;1.00
23143;DHT22;11740;51.168;4.112;2022-10-16T16:18:41;20.00;99.90
23143;DHT22;11740;51.168;4.112;2022-10-16T16:21:09;20.00;1.00
23143;DHT22;11740;51.168;4.112;2022-10-16T16:23:37;20.00;15.20
23143;DHT22;11740;51.168;4.112;2022-10-16T16:26:14;19.90;1.00
23143;DHT22;11740;51.168;4.112;2022-10-16T16:28:50;19.90;99.90
23143;DHT22;11740;51.168;4.112;2022-10-16T16:31:17;19.90;99.90
23143;DHT22;11740;51.168;4.112;2022-10-16T16:33:44;19.90;99.90
23143;DHT22;11740;51.168;4.112;2022-10-16T16:36:11;19.80;1.00
23143;DHT22;11740;51.168;4.112;2022-10-16T16:38:41;19.80;99.90
23143;DHT22;11740;51.168;4.112;2022-10-16T16:41:12;19.80;99.90
23143;DHT22;11740;51.168;4.112;2022-10-16T16:43:42;19.70;1.00
23143;DHT22;11740;51.168;4.112;2022-10-16T16:46:09;19.70;99.90
23143;DHT22;11740;51.168;4.112;2022-10-16T16:48:37;19.60;99.90
23143;DHT22;11740;51.168;4.112;2022-10-16T16:51:04;19.60;99.90
23143;DHT22;11740;51.168;4.112;2022-10-16T16:53:35;19.60;1.00
23143;DHT22;11740;51.168;4.112;2022-10-16T16:56:03;19.40;99.90
23143;DHT22;11740;51.168;4.112;2022-10-16T16:58:31;19.40;99.90
23143;DHT22;11740;51.168;4.112;2022-10-16T17:00:58;19.50;99.90
23143;DHT22;11740;51.168;4.112;2022-10-16T17:03:47;19.50;99.90
23143;DHT22;11740;51.168;4.112;2022-10-16T17:06:19;19.50;99.90
23143;DHT22;11740;51.168;4.112;2022-10-16T17:08:47;19.50;99.90
23143;DHT22;11740;51.168;4.112;2022-10-16T17:11:22;19.50;99.90
23143;DHT22;11740;51.168;4.112;2022-10-16T17:13:50;19.40;99.90
23143;DHT22;11740;51.168;4.112;2022-10-16T17:16:23;19.40;99.90
23143;DHT22;11740;51.168;4.112;2022-10-16T17:19:16;19.30;99.90
23143;DHT22;11740;51.168;4.112;2022-10-16T17:21:44;19.30;99.90
23143;DHT22;11740;51.168;4.112;2022-10-16T17:24:11;19.30;1.00
23143;DHT22;11740;51.168;4.112;2022-10-16T17:26:38;19.20;99.90
23143;DHT22;11740;51.168;4.112;2022-10-16T17:29:09;19.20;99.90
23143;DHT22;11740;51.168;4.112;2022-10-16T17:31:37;19.10;1.00
23143;DHT22;11740;51.168;4.112;2022-10-16T17:34:05;19.20;1.00
23143;DHT22;11740;51.168;4.112;2022-10-16T17:36:33;19.20;1.00
23143;DHT22;11740;51.168;4.112;2022-10-16T17:39:06;19.10;99.90
23143;DHT22;11740;51.168;4.112;2022-10-16T17:41:35;19.10;1.00
23143;DHT22;11740;51.168;4.112;2022-10-16T17:44:02;19.00;1.00
23143;DHT22;11740;51.168;4.112;2022-10-16T17:46:30;18.90;1.00
23143;DHT22;11740;51.168;4.112;2022-10-16T17:49:05;18.80;1.00
23143;DHT22;11740;51.168;4.112;2022-10-16T17:51:32;18.70;1.00
23143;DHT22;11740;51.168;4.112;2022-10-16T17:53:59;18.70;1.00
23143;DHT22;11740;51.168;4.112;2022-10-16T17:56:27;18.60;1.00
23143;DHT22;11740;51.168;4.112;2022-10-16T17:58:55;18.60;1.00